Ontario International Airport
KONT : rendu visible

Aérodrome :











RETROUVEZ-NOUS SUR...

 
LOGIN :

S'inscrire | Disclaimer

   EN    FR    IT 

 









Légende :    VFR   VFR Marginal   IFR   IFR Intensif   IFR Très Intensif
Visi : 
Plafond : 
>= 8 km
>= 3000ft
5 à 8 km
1000 à 3000 ft
1500m à 5 km
500 à 1000 ft
800 à 1500m
200 à 500 ft
< 800m
< 200 ft
Symboles :   Orages  Brouillard  Fortes neiges  Fortes précipitations  Vent > 20 kt






- Altitude de l'aérodrome : 944 ft
- Code IATA : ONT


KONT - Ontario International

DERNIER METAR :
  • 190253Z 00000KT 10SM BKN250 15/02 A3014 RMK AO2 SLP208 T01500017 53001

METARs EXPIRÉS :
  • 190153Z 31003KT 10SM BKN250 18/M01 A3013 RMK AO2 SLP204 T01781011
  • 190053Z 00000KT 10SM BKN250 19/M01 A3013 RMK AO2 SLP202 T01941011
  • 182353Z 24004KT 10SM BKN250 20/00 A3014 RMK AO2 SLP203 T02000000 10217 20139 55004

TAF KONT
Valide du 19 à 00h jusqu'au 20 à 06h UTC


182320Z 1900/2006 VRB05KT P6SM BKN250



MET'MAP, la Météo Aéronautique d'un coup d'oeil ! - Copyright ORBIFLY Décembre 2007 - Disclaimer

ORBIFLY MET'MAP TEAM :

Programmation & Développement : Alexandra Zaïnal
Sur une idée originale de : Baudouin d'Aumeries
Assistance à la programmation : Marc-Olivier Méhu
Soutien technique & logistique : Manuel Goepfert

Contact : metmap@orbifly.com




SOURCES & CREDITS :

   NOAA       Earth
Advisory